Time,TemperatureF,DewpointF,PressureIn,WindDirection,WindDirectionDegrees,WindSpeedMPH,WindSpeedGustMPH,Humidity,HourlyPrecipIn,Conditions,Clouds,dailyrainin,SoftwareType,DateUTC
2013-07-31 00:00:00,83.9,78.6,30.05,ESE,105,3.0,9.0,84,0.00,CLR,,0.00,WeatherDisplay:10.37,2013-07-31 06:00:00,
2013-07-31 00:15:00,84.0,78.6,30.04,ESE,107,2.0,8.0,84,0.00,CLR,,0.00,WeatherDisplay:10.37,2013-07-31 06:15:00,
2013-07-31 00:30:00,83.9,78.9,30.03,ESE,113,3.0,7.0,85,0.00,CLR,,0.00,WeatherDisplay:10.37,2013-07-31 06:30:00,
2013-07-31 00:45:00,83.7,78.3,30.02,ESE,113,2.0,6.0,84,0.00,CLR,,0.00,WeatherDisplay:10.37,2013-07-31 06:45:00,
2013-07-31 01:00:00,83.6,78.2,30.02,ESE,108,2.0,5.0,84,0.00,CLR,,0.00,WeatherDisplay:10.37,2013-07-31 07:00:00,
2013-07-31 01:15:00,83.5,78.5,30.01,ESE,117,2.0,5.0,85,0.00,CLR,,0.00,WeatherDisplay:10.37,2013-07-31 07:15:00,
2013-07-31 01:30:00,83.4,78.4,30.01,ESE,120,0.0,5.0,85,0.00,CLR,,0.00,WeatherDisplay:10.37,2013-07-31 07:30:00,
2013-07-31 01:45:00,82.9,77.6,30.00,ESE,120,0.0,2.0,84,0.00,CLR,,0.00,WeatherDisplay:10.37,2013-07-31 07:45:00,
2013-07-31 02:00:00,82.7,77.7,30.00,ESE,120,0.0,2.0,85,0.00,CLR,,0.00,WeatherDisplay:10.37,2013-07-31 08:00:00,
2013-07-31 02:15:00,82.4,77.4,30.00,ESE,120,0.0,1.0,85,0.00,CLR,,0.00,WeatherDisplay:10.37,2013-07-31 08:15:00,
2013-07-31 02:30:00,82.2,77.3,30.00,ESE,120,0.0,0.0,85,0.00,CLR,,0.00,WeatherDisplay:10.37,2013-07-31 08:30:00,
2013-07-31 02:45:00,82.3,77.7,29.99,ESE,120,0.0,0.0,86,0.00,CLR,,0.00,WeatherDisplay:10.37,2013-07-31 08:45:00,
2013-07-31 03:00:00,82.5,78.2,29.99,ESE,120,0.0,2.0,87,0.00,CLR,,0.00,WeatherDisplay:10.37,2013-07-31 09:00:00,
2013-07-31 03:15:00,82.1,77.5,29.98,ESE,120,1.0,2.0,86,0.00,CLR,,0.00,WeatherDisplay:10.37,2013-07-31 09:15:00,
2013-07-31 03:45:00,82.0,77.4,29.98,ESE,116,1.0,3.0,86,0.00,CLR,,0.00,WeatherDisplay:10.37,2013-07-31 09:45:00,
2013-07-31 04:00:00,82.0,77.7,29.98,NE,49,2.0,3.0,87,0.00,CLR,,0.00,WeatherDisplay:10.37,2013-07-31 10:00:00,
2013-07-31 04:15:00,81.6,77.4,29.98,North,353,1.0,3.0,87,0.00,CLR,,0.00,WeatherDisplay:10.37,2013-07-31 10:15:00,
2013-07-31 04:30:00,81.5,77.6,29.99,NNW,348,2.0,3.0,88,0.00,CLR,,0.00,WeatherDisplay:10.37,2013-07-31 10:30:00,
2013-07-31 04:45:00,81.4,77.2,29.99,NNE,18,3.0,5.0,87,0.00,CLR,,0.00,WeatherDisplay:10.37,2013-07-31 10:45:00,
2013-07-31 05:00:00,81.3,77.1,29.99,NNE,21,0.0,5.0,87,0.00,CLR,,0.00,WeatherDisplay:10.37,2013-07-31 11:00:00,
2013-07-31 05:15:00,81.5,77.2,29.99,NNE,22,1.0,3.0,87,0.00,CLR,,0.00,WeatherDisplay:10.37,2013-07-31 11:15:00,
2013-07-31 05:30:00,81.7,77.5,29.99,NNE,21,1.0,3.0,87,0.00,CLR,,0.00,WeatherDisplay:10.37,2013-07-31 11:30:00,
2013-07-31 05:45:00,81.8,77.5,30.00,NNE,22,1.0,2.0,87,0.00,CLR,,0.00,WeatherDisplay:10.37,2013-07-31 11:45:00,
2013-07-31 06:00:00,82.1,77.5,30.00,NNE,21,1.0,3.0,86,0.00,CLR,,0.00,WeatherDisplay:10.37,2013-07-31 12:00:00,
2013-07-31 06:15:00,82.3,77.7,30.01,NNE,22,2.0,3.0,86,0.00,CLR,,0.00,WeatherDisplay:10.37,2013-07-31 12:15:00,
2013-07-31 06:31:00,82.6,79.0,30.01,North,351,3.0,7.0,89,0.00,CLR,,0.00,WeatherDisplay:10.37,2013-07-31 12:31:00,
2013-07-31 06:45:00,82.1,78.5,30.01,North,7,3.0,13.0,89,0.00,CLR,,0.00,WeatherDisplay:10.37,2013-07-31 12:45:00,
2013-07-31 07:00:00,82.5,78.2,30.01,North,9,5.0,8.0,87,0.00,CLR,,0.00,WeatherDisplay:10.37,2013-07-31 13:00:00,
2013-07-31 07:15:00,83.1,78.1,30.01,North,2,3.0,9.0,85,0.00,CLR,,0.00,WeatherDisplay:10.37,2013-07-31 13:15:00,
2013-07-31 07:30:00,88.7,80.6,29.99,East,90,6.0,10.0,77,0.00,CLR,,0.00,WeatherDisplay:10.37,2013-07-31 13:30:00,
2013-07-31 07:31:00,83.8,78.1,30.02,NNE,20,3.0,9.0,83,0.00,CLR,,0.00,WeatherDisplay:10.37,2013-07-31 13:31:00,
2013-07-31 07:45:00,89.3,80.3,29.98,East,79,5.0,10.0,75,0.00,CLR,,0.00,WeatherDisplay:10.37,2013-07-31 13:45:00,
2013-07-31 07:46:00,85.0,78.5,30.02,North,1,2.0,8.0,81,0.00,CLR,,0.00,WeatherDisplay:10.37,2013-07-31 13:46:00,
2013-07-31 08:00:00,88.2,79.3,29.98,East,90,6.0,11.0,75,0.00,CLR,,0.00,WeatherDisplay:10.37,2013-07-31 14:00:00,
2013-07-31 08:01:00,86.1,78.9,30.02,North,10,3.0,6.0,79,0.00,CLR,,0.00,WeatherDisplay:10.37,2013-07-31 14:01:00,
2013-07-31 08:15:00,87.2,79.5,29.98,East,90,6.0,10.0,78,0.00,CLR,,0.00,WeatherDisplay:10.37,2013-07-31 14:15:00,
2013-07-31 08:16:00,87.9,78.9,30.03,ENE,57,5.0,8.0,75,0.00,CLR,,0.00,WeatherDisplay:10.37,2013-07-31 14:16:00,
2013-07-31 08:30:00,87.8,79.3,29.98,East,90,5.0,10.0,76,0.00,CLR,,0.00,WeatherDisplay:10.37,2013-07-31 14:30:00,
2013-07-31 08:31:00,88.3,79.4,30.03,ENE,65,2.0,8.0,75,0.00,CLR,,0.00,WeatherDisplay:10.37,2013-07-31 14:31:00,
2013-07-31 08:45:00,88.5,80.0,29.97,East,90,5.0,10.0,76,0.00,CLR,,0.00,WeatherDisplay:10.37,2013-07-31 14:45:00,
2013-07-31 09:00:00,88.4,79.9,29.97,East,90,5.0,10.0,76,0.00,CLR,,0.00,WeatherDisplay:10.37,2013-07-31 15:00:00,
2013-07-31 09:15:00,87.4,80.1,29.97,East,90,7.0,11.0,79,0.00,CLR,,0.00,WeatherDisplay:10.37,2013-07-31 15:15:00,
2013-07-31 09:30:00,87.7,80.4,29.97,East,90,7.0,11.0,79,0.00,CLR,,0.00,WeatherDisplay:10.37,2013-07-31 15:30:00,
2013-07-31 09:31:00,89.6,79.0,30.04,ENE,62,5.0,12.0,71,0.00,CLR,,0.00,WeatherDisplay:10.37,2013-07-31 15:31:00,
2013-07-31 09:45:00,87.4,80.1,29.96,East,90,7.0,12.0,79,0.00,CLR,,0.00,WeatherDisplay:10.37,2013-07-31 15:45:00,
2013-07-31 09:46:00,89.6,79.8,30.04,ENE,68,5.0,12.0,73,0.00,CLR,,0.00,WeatherDisplay:10.37,2013-07-31 15:46:00,
2013-07-31 10:00:00,87.3,79.6,29.96,East,90,6.0,12.0,78,0.00,CLR,,0.00,WeatherDisplay:10.37,2013-07-31 16:00:00,
2013-07-31 10:01:00,89.4,79.2,30.04,ENE,62,6.0,10.0,72,0.00,CLR,,0.00,WeatherDisplay:10.37,2013-07-31 16:01:00,
2013-07-31 10:15:00,89.7,79.9,30.04,ENE,68,3.0,11.0,73,0.00,CLR,,0.00,WeatherDisplay:10.37,2013-07-31 16:15:00,
2013-07-31 10:26:00,86.8,78.7,29.95,NE,45,5.0,11.0,77,0.00,CLR,,0.00,WeatherDisplay:10.37,2013-07-31 16:26:00,
2013-07-31 10:30:00,86.8,78.7,29.95,NE,45,5.0,10.0,77,0.00,CLR,,0.00,WeatherDisplay:10.37,2013-07-31 16:30:00,
2013-07-31 10:32:00,89.8,80.0,30.04,East,97,5.0,9.0,73,0.00,CLR,,0.00,WeatherDisplay:10.37,2013-07-31 16:32:00,
2013-07-31 10:45:00,89.9,80.1,30.03,East,80,3.0,9.0,73,0.00,CLR,,0.00,WeatherDisplay:10.37,2013-07-31 16:45:00,
2013-07-31 11:00:00,86.7,78.2,29.95,ENE,68,5.0,10.0,76,0.00,CLR,,0.00,WeatherDisplay:10.37,2013-07-31 17:00:00,
2013-07-31 11:01:00,89.5,80.2,30.03,ENE,78,5.0,10.0,74,0.00,CLR,,0.00,WeatherDisplay:10.37,2013-07-31 17:01:00,
2013-07-31 11:15:00,89.1,80.1,30.03,ENE,77,5.0,9.0,75,0.00,CLR,,0.00,WeatherDisplay:10.37,2013-07-31 17:15:00,
2013-07-31 11:30:00,85.1,78.6,29.95,NE,45,3.0,11.0,81,0.00,CLR,,0.00,WeatherDisplay:10.37,2013-07-31 17:30:00,
2013-07-31 11:31:00,88.3,80.2,30.03,East,81,5.0,10.0,77,0.00,CLR,,0.00,WeatherDisplay:10.37,2013-07-31 17:31:00,
2013-07-31 11:45:00,89.1,80.5,30.02,East,83,3.0,10.0,76,0.00,CLR,,0.00,WeatherDisplay:10.37,2013-07-31 17:45:00,
2013-07-31 12:00:00,87.9,80.2,30.02,East,79,7.0,12.0,78,0.00,CLR,,0.00,WeatherDisplay:10.37,2013-07-31 18:00:00,
2013-07-31 12:15:00,84.3,78.2,29.95,East,82,6.0,10.0,82,0.00,CLR,,0.00,WeatherDisplay:10.37,2013-07-31 18:15:00,
2013-07-31 12:30:00,84.4,78.3,29.96,East,90,5.0,10.0,82,0.00,CLR,,0.00,WeatherDisplay:10.37,2013-07-31 18:30:00,
2013-07-31 12:45:00,89.2,80.7,30.01,East,85,3.0,10.0,76,0.00,CLR,,0.00,WeatherDisplay:10.37,2013-07-31 18:45:00,
2013-07-31 13:00:00,84.3,78.6,29.96,East,90,6.0,11.0,83,0.00,CLR,,0.00,WeatherDisplay:10.37,2013-07-31 19:00:00,
2013-07-31 13:15:00,84.3,78.6,29.97,East,79,3.0,9.0,83,0.00,CLR,,0.00,WeatherDisplay:10.37,2013-07-31 19:15:00,
2013-07-31 13:30:00,84.3,78.6,29.98,NE,45,3.0,10.0,83,0.00,CLR,,0.00,WeatherDisplay:10.37,2013-07-31 19:30:00,
2013-07-31 13:45:00,84.4,78.7,29.98,ENE,71,5.0,10.0,83,0.00,CLR,,0.00,WeatherDisplay:10.37,2013-07-31 19:45:00,
2013-07-31 14:00:00,84.3,78.6,29.99,East,90,6.0,10.0,83,0.00,CLR,,0.00,WeatherDisplay:10.37,2013-07-31 20:00:00,
2013-07-31 14:15:00,84.3,78.6,29.99,East,90,7.0,10.0,83,0.00,CLR,,0.00,WeatherDisplay:10.37,2013-07-31 20:15:00,
2013-07-31 14:30:00,84.3,77.8,29.99,East,90,5.0,10.0,81,0.00,CLR,,0.00,WeatherDisplay:10.37,2013-07-31 20:30:00,
2013-07-31 21:00:00,84.3,78.6,30.00,East,87,6.0,8.0,83,0.00,CLR,,0.00,WeatherDisplay:10.37,2013-08-01 03:00:00,
2013-07-31 21:15:00,84.1,78.4,30.01,East,84,3.0,8.0,83,0.00,CLR,,0.00,WeatherDisplay:10.37,2013-08-01 03:15:00,
2013-07-31 21:30:00,84.1,78.7,30.01,East,88,2.0,9.0,84,0.00,CLR,,0.00,WeatherDisplay:10.37,2013-08-01 03:30:00,
2013-07-31 21:45:00,84.1,78.4,30.01,East,95,2.0,8.0,83,0.00,CLR,,0.00,WeatherDisplay:10.37,2013-08-01 03:45:00,
2013-07-31 22:00:00,84.0,77.5,30.00,East,98,3.0,8.0,81,0.00,CLR,,0.00,WeatherDisplay:10.37,2013-08-01 04:00:00,
2013-07-31 22:15:00,84.3,77.8,30.00,East,98,1.0,6.0,81,0.00,CLR,,0.00,WeatherDisplay:10.37,2013-08-01 04:15:00,
2013-07-31 22:30:00,84.2,77.7,30.00,ESE,113,2.0,7.0,81,0.00,CLR,,0.00,WeatherDisplay:10.37,2013-08-01 04:30:00,
2013-07-31 22:45:00,84.2,78.1,30.00,ESE,113,2.0,7.0,82,0.00,CLR,,0.00,WeatherDisplay:10.37,2013-08-01 04:45:00,
2013-07-31 23:00:00,84.1,78.0,30.00,ESE,111,2.0,8.0,82,0.00,CLR,,0.00,WeatherDisplay:10.37,2013-08-01 05:00:00,
2013-07-31 23:15:00,83.9,77.5,29.99,ESE,109,3.0,7.0,81,0.00,CLR,,0.00,WeatherDisplay:10.37,2013-08-01 05:15:00,
2013-07-31 23:30:00,84.0,77.9,29.99,ESE,112,3.0,8.0,82,0.00,CLR,,0.00,WeatherDisplay:10.37,2013-08-01 05:30:00,
2013-07-31 23:45:00,83.8,77.8,29.98,East,100,2.0,7.0,82,0.00,CLR,,0.00,WeatherDisplay:10.37,2013-08-01 05:45:00,